LavenderCAM.net
Leatherhead Weather
 
Leatherhead Weather
 
 





Aviation weather for

London Heathrow (EGLL) and London Gatwick (EGKK)



London Heathrow (EGLL) METAR / Surface Actual
London / Heathrow Airport, United Kingdom (EGLL) 51-29N 000-27W 0M
Dec 03, 2020 - 01:50 PM EST / 2020.12.03 1850 UTC
Wind: from the SSW (200 degrees) at 8 MPH (7 KT) (direction variable):0
Visibility: greater than 7 mile(s):0
Sky conditions: mostly cloudy
Temperature: 39 F (4 C)
Dew Point: 37 F (3 C)
Relative Humidity: 93%
Pressure (altimeter): 28.88 in. Hg (0978 hPa)
ob: EGLL 031850Z AUTO 20007KT 180V240 9999 BKN026 04/03 Q0978 NOSIG
cycle: 19
London Heathrow (EGLL) TAF / Forecast
2020/12/03 18:09
TAF EGLL 031701Z 0318/0424 21006KT 9999 SCT030 PROB30 
      TEMPO 0318/0322 BKN010 
      BECMG 0322/0401 31010KT BKN008 PROB30 
      TEMPO 0401/0407 3000 RADZ BKN004 
      BECMG 0407/0410 SCT025 PROB30 
      TEMPO 0410/0414 6000 SHRA 
      BECMG 0414/0417 23008KT


London Gatwick (EGKK) METAR / Surface Actual
London / Gatwick Airport, United Kingdom (EGKK) 51-09N 000-11W 0M
Dec 03, 2020 - 01:50 PM EST / 2020.12.03 1850 UTC
Wind: Calm:0
Visibility: greater than 7 mile(s):0
Weather: shallow fog
Temperature: 37 F (3 C)
Dew Point: 35 F (2 C)
Relative Humidity: 93%
Pressure (altimeter): 28.88 in. Hg (0978 hPa)
ob: EGKK 031850Z 00000KT 9999 R26L/1400 MIFG NSC 03/02 Q0978
cycle: 19
London Gatwick (EGKK) TAF / Forecast
2020/12/03 18:09
TAF TAF EGKK 031656Z 0318/0424 20006KT 9999 SCT010 
      TEMPO 0318/0409 7000 RA PROB40 
      TEMPO 0321/0409 BKN004 
      BECMG 0400/0403 30010KT PROB30 
      TEMPO 0409/0414 7000 RA BKN004 
      BECMG 0412/0415 22008KT